x

Ne Burgeo Bank (44255) Wave Buoy

4:00pm - Fri 3rd Jul 2015 All times are ADT. -3 hours from GMT.

  • Sig Wave height 3.3ft
  • Peak Period 8s
  • Wind
    7mph, 9mph gusts
  • Sea Temp 51°f
  • Sea Pressure 1009mb
  • Ne Burgeo Bank
  • Ne Burgeo Bank

More Historic Weather Station data

Upgrade to MSW Pro to gain access to the past 30 days of data for over 8000 Wavebouys and Weather Stations around the globe.

Join Pro

Comparision Forecast

View Surf forecast
   
Fri 07/03 4:00pm 3.5ft 8s 7 9 mph 1009mb 51f
3:00pm 3.5ft 9s 7 9 mph 1009.6mb 51f
1:00pm 4ft 9s 7
mph
1010.3mb 51f
12:00pm 4ft 8s 9 11 mph 1011mb 51f
11:00am 4.5ft 10s 7 9 mph 1011.6mb 51f
10:00am 4.5ft 8s 9
mph
1011.1mb 51f
9:00am 4.5ft 8s 7 9 mph 1011.7mb 51f
8:00am 4.5ft 8s 4 7 mph 1011.8mb 51f
7:00am 4.5ft 8s 7
mph
1012.2mb 50f
6:00am 4.5ft 8s 4 7 mph 1012.1mb 50f
5:00am 4.5ft 8s 4
mph
1012mb 50f
4:00am 4ft 9s 2 4 mph 1011.9mb 50f
3:00am 4ft 10s 4 7 mph 1012mb 50f
2:00am 4.5ft 8s 9
mph
1011.9mb 50f
1:00am 4ft 9s 11 16 mph 1011.8mb 50f
Thu 07/02 11:00pm 4ft 8s 13 16 mph 1012.5mb 50f
10:00pm 4.5ft 8s 13 16 mph 1012.5mb 51f
9:00pm 4ft 9s 11 13 mph 1012.6mb 51f
8:00pm 4.5ft 8s 13 16 mph 1012.4mb 51f
7:00pm 4.5ft 9s 16 18 mph 1012.5mb 51f
6:00pm 4.5ft 8s 16 18 mph 1012.9mb 51f
4:00pm 4.5ft 4s 20 22 mph 1013.6mb 51f
3:00pm 4ft  -  20 22 mph 1014mb 50f
2:00pm 4ft 8s 16 20 mph 1014.2mb 51f
1:00pm 4ft  -  18 20 mph 1014.4mb 50f
12:00pm 3.5ft 8s 18 22 mph 1014.6mb 50f
11:00am 3ft 8s 16 20 mph 1015.4mb 50f
9:00am 3ft 8s 13 16 mph 1015.7mb 50f
8:00am 3ft 9s 13
mph
1015.9mb -
7:00am 3ft 8s 11 13 mph 1015.7mb 50f
6:00am 3ft 8s 9 11 mph 1016.1mb 50f
5:00am 3ft 8s 7 9 mph 1016.3mb 50f
4:00am 3ft 8s 9 11 mph 1015.4mb 51f
2:00am 3.5ft 7s 7 9 mph 1016.2mb 51f
1:00am 3.5ft 8s 4 7 mph 1016.5mb 52f
12:00am 3.5ft 8s 7
mph
1016.5mb 52f
Wed 07/01 11:00pm 3.5ft 8s 9
mph
1016.9mb 53f
10:00pm 3.5ft 8s 4 7 mph 1016.7mb 53f
9:00pm 3.5ft 7s 4 7 mph 1016.2mb -
8:00pm 3.5ft 9s 2 4 mph 1016.5mb 53f
7:00pm 3.5ft 8s  -  mph 1016.7mb 53f
6:00pm 3.5ft 8s 2
mph
1016.6mb 53f
5:00pm 3.5ft 9s 4
mph
1016.7mb 53f
4:00pm 3.5ft 7s 7 9 mph 1016.9mb 53f
3:00pm 3.5ft 9s 9
mph
1017.2mb 52f
2:00pm 3.5ft 9s 9 11 mph 1017.4mb 52f
1:00pm 4ft 10s 7 9 mph 1017.2mb 52f
12:00pm 4.5ft 8s 7
mph
1016.8mb 52f
11:00am 4ft 11s 4 7 mph 1016.9mb 52f
10:00am 4.5ft 8s 4
mph
1016.8mb 51f
9:00am 4.5ft 8s 4
mph
1016.9mb 51f
8:00am 5ft 10s 2 4 mph 1016.9mb 50f
7:00am 4.5ft 8s 4 7 mph 1016.8mb 50f
5:00am 5ft 9s 4 7 mph 1016.7mb 50f
2:00am 5ft 8s 11 13 mph 1016mb 50f
1:00am 5ft 8s 11 13 mph 1015.4mb 50f
12:00am 5ft 8s 11 13 mph 1015.1mb 50f
Tue 06/30 11:00pm 5.5ft 8s 11 13 mph 1015.2mb 50f
10:00pm 5ft 9s 9 11 mph 1015.1mb 50f
9:00pm 6ft 8s 9 11 mph 1014.6mb 50f
8:00pm 6ft 9s 9 11 mph 1014.7mb 49f
7:00pm 6ft 8s 4 7 mph 1014.8mb 50f
6:00pm 6ft 8s 7 9 mph 1014.9mb 50f
4:00pm 5.5ft 8s 7 9 mph 1014.9mb 50f
3:00pm 5.5ft 8s 9 11 mph 1015.1mb 50f
1:00pm 6.5ft 9s 11 13 mph 1014.7mb 50f
12:00pm 6ft 9s 9
mph
1014.4mb 50f
11:00am 6.5ft 9s 9 11 mph 1014.1mb 50f
10:00am 6ft 9s 11 13 mph 1013.9mb 50f
9:00am 6ft 8s 11 13 mph 1013.7mb 50f
8:00am 5.5ft 9s 11 13 mph 1013.2mb 50f
7:00am 6ft 10s 9
mph
1013.2mb 50f
6:00am 6ft 9s 4 7 mph 1012.7mb 49f
5:00am 7ft 10s  -  mph 1001.8mb 49f
4:00am 7ft 10s 4 7 mph 1012mb 49f
3:00am 7ft 10s 7
mph
1011.7mb 49f
2:00am 7.5ft 9s 9 11 mph 1011.6mb 49f
12:00am 8.5ft 10s 9 11 mph 1011.5mb 50f
Mon 06/29 9:00pm 10.5ft 9s 22 27 mph 1011.3mb 50f